Time;durP1;ratioP1;P1;durP2;ratioP2;P2;SDS_P1;SDS_P2;PMS_P1;PMS_P2;Temp;Humidity;BMP_temperature;BMP_pressure;BME280_temperature;BME280_humidity;BME280_pressure;Samples;Min_cycle;Max_cycle;Signal;HPM_P1;HPM_P2
2021/07/05 00:00:00;;;;;;;11.93;8.40;;;24.80;68.20;;;;;;5033958;28;20382;-67
2021/07/05 00:02:25;;;;;;;9.45;7.05;;;24.80;68.20;;;;;;5034137;28;20036;-68
2021/07/05 00:04:51;;;;;;;7.53;6.72;;;24.80;68.20;;;;;;5033276;28;20065;-67
2021/07/05 00:07:19;;;;;;;7.75;6.95;;;24.80;68.30;;;;;;5032786;28;20525;-68
2021/07/05 00:09:46;;;;;;;7.75;7.05;;;24.80;68.20;;;;;;5034921;28;20420;-68
2021/07/05 00:12:11;;;;;;;9.00;7.25;;;24.80;69.10;;;;;;5034884;28;20036;-68
2021/07/05 00:14:37;;;;;;;8.90;7.97;;;24.80;68.40;;;;;;5033483;28;20025;-68
2021/07/05 00:17:04;;;;;;;9.50;7.65;;;24.80;68.70;;;;;;5033491;28;20021;-68
2021/07/05 00:19:29;;;;;;;8.38;7.13;;;24.80;68.80;;;;;;5033053;28;20033;-67
2021/07/05 00:21:55;;;;;;;8.73;7.22;;;24.90;68.80;;;;;;5033230;28;20026;-67
2021/07/05 00:24:21;;;;;;;10.05;9.00;;;24.90;68.90;;;;;;5033135;28;20429;-68
2021/07/05 00:26:47;;;;;;;7.75;6.93;;;24.80;69.00;;;;;;5033095;28;20029;-68
2021/07/05 00:29:13;;;;;;;10.23;9.05;;;24.90;69.10;;;;;;5031766;28;20025;-66
2021/07/05 00:31:39;;;;;;;9.93;8.07;;;24.90;69.40;;;;;;5033170;28;20079;-68
2021/07/05 00:34:05;;;;;;;9.75;7.85;;;24.90;69.50;;;;;;5032775;28;20033;-68
2021/07/05 00:36:30;;;;;;;10.52;8.43;;;24.80;69.60;;;;;;5033642;28;20066;-68
2021/07/05 00:38:56;;;;;;;9.20;8.25;;;24.90;69.60;;;;;;5033128;28;20021;-65
2021/07/05 00:41:22;;;;;;;8.20;7.35;;;24.90;69.60;;;;;;5032742;28;20037;-65
2021/07/05 00:43:48;;;;;;;9.35;8.45;;;24.90;69.80;;;;;;5032806;28;20095;-65
2021/07/05 00:46:13;;;;;;;9.93;7.72;;;24.80;69.80;;;;;;5032747;28;20022;-65
2021/07/05 00:48:39;;;;;;;10.23;9.02;;;24.90;70.00;;;;;;5032724;28;20017;-65
2021/07/05 00:51:05;;;;;;;9.38;8.10;;;24.80;70.10;;;;;;5032595;28;20105;-67
2021/07/05 00:53:31;;;;;;;9.32;8.23;;;24.90;70.40;;;;;;5033004;28;20053;-66
2021/07/05 00:55:57;;;;;;;10.57;9.35;;;24.90;70.30;;;;;;5032409;28;20021;-66
2021/07/05 00:58:23;;;;;;;10.65;9.50;;;24.90;70.50;;;;;;5032514;28;20377;-66
2021/07/05 01:00:48;;;;;;;9.95;8.82;;;24.80;70.70;;;;;;5032383;28;20386;-66
2021/07/05 01:03:14;;;;;;;9.75;8.75;;;24.80;70.70;;;;;;5032483;28;20137;-66
2021/07/05 01:05:40;;;;;;;11.00;9.20;;;24.80;70.70;;;;;;5033326;28;20029;-66
2021/07/05 01:08:06;;;;;;;9.63;8.65;;;24.90;71.00;;;;;;5033784;28;20075;-67
2021/07/05 01:10:32;;;;;;;10.63;9.55;;;24.90;71.10;;;;;;5034032;28;20056;-66
2021/07/05 01:12:59;;;;;;;10.98;9.48;;;24.80;71.10;;;;;;5033587;28;20036;-66
2021/07/05 01:15:28;;;;;;;11.30;10.00;;;24.90;71.10;;;;;;5033602;28;20517;-66
2021/07/05 01:17:56;;;;;;;9.60;8.70;;;24.80;71.00;;;;;;5033248;28;20029;-66
2021/07/05 01:20:24;;;;;;;9.27;8.38;;;24.80;70.80;;;;;;5033384;28;20031;-66
2021/07/05 01:22:50;;;;;;;8.88;7.97;;;24.80;70.80;;;;;;5033175;28;20065;-67
2021/07/05 01:25:21;;;;;;;10.93;8.70;;;24.80;70.80;;;;;;5032504;28;20072;-67
2021/07/05 01:27:48;;;;;;;10.55;9.52;;;24.90;70.80;;;;;;5033304;28;20021;-67
2021/07/05 01:30:17;;;;;;;10.05;8.77;;;24.90;70.70;;;;;;5033247;28;20071;-66
2021/07/05 01:32:44;;;;;;;9.18;8.23;;;24.90;70.80;;;;;;5033372;28;20034;-66
2021/07/05 01:35:10;;;;;;;10.07;9.02;;;24.80;70.70;;;;;;5032205;28;20455;-67
2021/07/05 01:37:36;;;;;;;10.00;9.00;;;24.90;70.80;;;;;;5033087;28;20022;-66
2021/07/05 01:40:06;;;;;;;9.95;8.95;;;24.90;70.70;;;;;;5033141;28;20516;-66
2021/07/05 01:42:32;;;;;;;10.15;9.07;;;24.90;70.70;;;;;;5032806;28;20026;-67
2021/07/05 01:44:58;;;;;;;9.50;8.60;;;24.80;70.60;;;;;;5031672;28;20069;-67
2021/07/05 01:47:23;;;;;;;10.50;9.40;;;24.80;70.60;;;;;;5031925;28;20525;-67
2021/07/05 01:49:49;;;;;;;12.50;9.93;;;24.90;70.70;;;;;;5032645;28;20113;-66
2021/07/05 01:52:15;;;;;;;11.38;10.18;;;24.80;70.60;;;;;;5033460;28;20028;-66
2021/07/05 01:54:41;;;;;;;9.77;8.77;;;24.80;71.40;;;;;;5032718;28;20087;-67
2021/07/05 01:57:33;;;;;;;10.20;9.18;;;24.90;70.80;;;;;;5032902;28;20025;-66
2021/07/05 01:59:56;;;;;;;10.60;8.60;;;24.80;70.70;;;;;;5032498;28;20041;-66
2021/07/05 02:02:23;;;;;;;10.13;9.23;;;24.80;70.70;;;;;;5033048;28;20026;-66
2021/07/05 02:04:48;;;;;;;10.52;9.52;;;24.80;70.80;;;;;;5032565;28;20046;-67
2021/07/05 02:07:15;;;;;;;10.25;9.25;;;24.80;70.80;;;;;;5032870;28;20029;-66
2021/07/05 02:09:40;;;;;;;10.35;9.25;;;24.80;70.80;;;;;;5032691;28;20032;-67
2021/07/05 02:12:07;;;;;;;10.70;9.65;;;24.80;71.50;;;;;;5032768;28;20026;-67
2021/07/05 02:14:32;;;;;;;10.70;9.65;;;24.90;70.70;;;;;;5032713;28;20111;-66
2021/07/05 02:16:58;;;;;;;12.60;9.38;;;24.90;70.70;;;;;;5032865;28;20064;-67
2021/07/05 02:19:24;;;;;;;11.05;9.95;;;24.80;70.70;;;;;;5032699;28;20053;-66
2021/07/05 02:21:50;;;;;;;11.88;10.23;;;24.80;70.80;;;;;;5032800;28;20030;-66
2021/07/05 02:24:15;;;;;;;11.88;9.57;;;24.80;70.70;;;;;;5032579;28;20053;-67
2021/07/05 02:26:43;;;;;;;9.48;8.57;;;24.80;70.50;;;;;;5032380;28;20034;-67
2021/07/05 02:29:10;;;;;;;9.23;8.27;;;24.80;70.40;;;;;;5033003;28;20025;-66
2021/07/05 02:31:36;;;;;;;10.85;9.75;;;24.80;70.10;;;;;;5032749;28;20040;-66
2021/07/05 02:34:03;;;;;;;11.35;9.32;;;24.80;70.10;;;;;;5032671;28;20112;-66
2021/07/05 02:36:29;;;;;;;9.40;8.35;;;24.80;70.20;;;;;;5033346;28;20026;-66
2021/07/05 02:38:55;;;;;;;8.88;7.90;;;24.80;70.00;;;;;;5036863;28;20420;-66
2021/07/05 02:41:21;;;;;;;9.38;8.38;;;24.80;69.80;;;;;;5036066;28;20457;-66
2021/07/05 02:43:47;;;;;;;11.45;7.95;;;24.70;69.50;;;;;;5036589;28;20079;-66
2021/07/05 02:46:13;;;;;;;8.35;7.55;;;24.70;69.10;;;;;;5036183;28;20026;-67
2021/07/05 02:48:40;;;;;;;9.50;8.48;;;24.80;69.10;;;;;;5036415;28;20147;-66
2021/07/05 02:51:08;;;;;;;7.82;7.00;;;24.80;68.80;;;;;;5036002;28;20021;-67
2021/07/05 02:53:34;;;;;;;8.73;7.35;;;24.80;68.80;;;;;;5036348;28;20025;-67
2021/07/05 02:56:00;;;;;;;9.77;7.05;;;24.70;68.60;;;;;;5035995;28;20152;-66
2021/07/05 02:58:26;;;;;;;7.60;6.90;;;24.70;68.50;;;;;;5036198;28;20502;-67
2021/07/05 03:00:55;;;;;;;7.78;6.97;;;24.70;68.50;;;;;;5036323;28;20021;-67
2021/07/05 03:03:21;;;;;;;7.20;6.47;;;24.70;68.50;;;;;;5035818;28;20406;-66
2021/07/05 03:05:47;;;;;;;7.45;6.75;;;24.70;68.40;;;;;;5035971;28;20037;-66
2021/07/05 03:08:13;;;;;;;7.72;6.93;;;24.70;68.40;;;;;;5035737;28;20470;-68
2021/07/05 03:10:41;;;;;;;8.35;7.55;;;24.70;68.30;;;;;;5036103;28;20027;-66
2021/07/05 03:13:08;;;;;;;8.55;7.60;;;24.70;68.30;;;;;;5035887;28;20034;-66
2021/07/05 03:15:35;;;;;;;8.05;7.00;;;24.70;68.20;;;;;;5035973;28;20025;-66
2021/07/05 03:18:01;;;;;;;7.90;7.10;;;24.70;68.00;;;;;;5035654;28;20469;-66
2021/07/05 03:20:29;;;;;;;7.07;6.38;;;24.70;67.80;;;;;;5035714;28;20026;-66
2021/07/05 03:22:57;;;;;;;9.40;6.57;;;24.70;67.60;;;;;;5035434;28;20112;-66
2021/07/05 03:25:25;;;;;;;8.00;6.25;;;24.70;67.50;;;;;;5035660;28;20560;-66
2021/07/05 03:27:51;;;;;;;7.38;5.93;;;24.60;67.50;;;;;;5035759;28;20029;-66
2021/07/05 03:30:19;;;;;;;8.55;5.60;;;24.70;67.40;;;;;;5035650;28;20025;-66
2021/07/05 03:32:46;;;;;;;7.38;6.65;;;24.60;67.30;;;;;;5035709;28;20453;-66
2021/07/05 03:35:13;;;;;;;7.35;6.55;;;24.60;67.40;;;;;;5035486;28;20029;-66
2021/07/05 03:37:40;;;;;;;8.40;7.10;;;24.60;67.30;;;;;;5035389;28;20025;-66
2021/07/05 03:40:09;;;;;;;7.30;6.45;;;24.60;67.30;;;;;;5034250;28;20029;-67
2021/07/05 03:42:35;;;;;;;8.32;6.55;;;24.60;67.40;;;;;;5035204;28;20465;-66
2021/07/05 03:45:00;;;;;;;8.48;6.57;;;24.60;67.30;;;;;;5033914;28;20045;-66
2021/07/05 03:47:26;;;;;;;7.05;6.30;;;24.60;67.10;;;;;;5035277;28;20487;-67
2021/07/05 03:49:52;;;;;;;7.88;6.50;;;24.60;67.10;;;;;;5034310;28;20022;-66
2021/07/05 03:52:18;;;;;;;7.35;6.65;;;24.60;67.10;;;;;;5035113;28;20086;-67
2021/07/05 03:54:44;;;;;;;7.47;6.57;;;24.70;67.10;;;;;;5035255;28;20060;-66
2021/07/05 03:57:22;;;;;;;7.10;6.32;;;24.70;67.10;;;;;;5035223;28;20030;-66
2021/07/05 03:59:55;;;;;;;6.60;6.00;;;24.60;67.00;;;;;;5035216;28;20498;-67
2021/07/05 04:02:21;;;;;;;7.18;6.47;;;24.60;67.10;;;;;;5035042;28;20030;-67
2021/07/05 04:04:47;;;;;;;6.88;6.15;;;24.60;67.10;;;;;;5034774;28;20050;-67
2021/07/05 04:07:14;;;;;;;8.88;6.55;;;24.60;66.90;;;;;;5034064;28;20088;-66
2021/07/05 04:09:40;;;;;;;8.88;6.30;;;24.60;66.90;;;;;;5035048;28;20029;-66
2021/07/05 04:12:11;;;;;;;7.65;5.65;;;24.60;66.80;;;;;;5034822;28;20022;-66
2021/07/05 04:14:38;;;;;;;6.15;5.47;;;24.60;66.70;;;;;;5034819;28;20031;-66
2021/07/05 04:17:04;;;;;;;7.47;6.35;;;24.60;66.60;;;;;;5034494;28;20029;-67
2021/07/05 04:19:29;;;;;;;7.57;6.22;;;24.60;66.50;;;;;;5034631;28;20041;-66
2021/07/05 04:21:55;;;;;;;6.55;5.90;;;24.50;66.40;;;;;;5034515;28;20061;-66
2021/07/05 04:24:21;;;;;;;7.18;6.07;;;24.60;66.30;;;;;;5034673;28;20469;-66
2021/07/05 04:26:48;;;;;;;6.68;5.97;;;24.50;66.30;;;;;;5034466;28;20067;-67
2021/07/05 04:29:13;;;;;;;7.20;6.28;;;24.50;66.20;;;;;;5034796;28;20060;-66
2021/07/05 04:31:39;;;;;;;7.00;5.80;;;24.50;66.20;;;;;;5034245;28;20454;-67
2021/07/05 04:34:05;;;;;;;7.97;6.15;;;24.50;66.10;;;;;;5034341;28;20394;-66
2021/07/05 04:36:30;;;;;;;6.82;5.97;;;24.50;66.10;;;;;;5034010;28;20520;-66
2021/07/05 04:38:56;;;;;;;6.93;5.80;;;24.60;66.20;;;;;;5034406;28;20059;-66
2021/07/05 04:41:22;;;;;;;7.68;5.70;;;24.60;66.20;;;;;;5033943;28;20041;-66
2021/07/05 04:43:47;;;;;;;6.70;6.00;;;24.50;66.30;;;;;;5034578;28;20084;-66
2021/07/05 04:46:16;;;;;;;8.75;6.95;;;24.60;66.50;;;;;;5034131;28;20029;-66
2021/07/05 04:48:41;;;;;;;8.07;6.07;;;24.50;66.50;;;;;;5032447;28;20524;-67
2021/07/05 04:51:08;;;;;;;7.63;6.82;;;24.50;66.70;;;;;;5034111;28;20030;-66
2021/07/05 04:53:33;;;;;;;8.52;7.00;;;24.60;66.70;;;;;;5034016;28;20112;-66
2021/07/05 04:55:59;;;;;;;7.32;6.63;;;24.60;66.60;;;;;;5033729;28;20558;-66
2021/07/05 04:58:25;;;;;;;7.60;6.22;;;24.60;66.60;;;;;;5033877;28;20026;-66
2021/07/05 05:00:51;;;;;;;9.07;6.47;;;24.50;66.60;;;;;;5033832;28;20355;-66
2021/07/05 05:03:17;;;;;;;8.52;6.80;;;24.50;66.40;;;;;;5033516;28;20390;-66
2021/07/05 05:05:44;;;;;;;6.97;6.28;;;24.50;66.30;;;;;;5033696;28;20183;-66
2021/07/05 05:08:11;;;;;;;9.77;6.45;;;24.50;67.00;;;;;;5032256;28;20116;-67
2021/07/05 05:10:37;;;;;;;8.70;6.20;;;24.50;66.20;;;;;;5033649;28;20367;-66
2021/07/05 05:13:03;;;;;;;7.70;6.85;;;24.50;66.10;;;;;;5033685;28;20037;-66
2021/07/05 05:15:28;;;;;;;7.93;6.47;;;24.50;66.00;;;;;;5032280;28;20409;-66
2021/07/05 05:17:54;;;;;;;8.52;7.25;;;24.40;66.00;;;;;;5033471;28;20029;-67
2021/07/05 05:20:22;;;;;;;8.05;6.07;;;24.50;65.90;;;;;;5033655;28;20022;-66
2021/07/05 05:22:48;;;;;;;9.63;6.82;;;24.50;65.90;;;;;;5033731;28;20083;-66
2021/07/05 05:25:16;;;;;;;8.15;6.47;;;24.50;65.90;;;;;;5033491;28;20038;-66
2021/07/05 05:27:42;;;;;;;8.55;7.00;;;24.50;65.90;;;;;;5033407;28;20033;-66
2021/07/05 05:30:10;;;;;;;7.45;6.30;;;24.50;65.90;;;;;;5033107;28;20026;-66
2021/07/05 05:32:36;;;;;;;8.45;6.93;;;24.40;65.80;;;;;;5033446;28;20371;-67
2021/07/05 05:35:04;;;;;;;8.40;6.85;;;24.50;65.80;;;;;;5033241;28;20045;-66
2021/07/05 05:37:30;;;;;;;8.00;6.40;;;24.50;65.70;;;;;;5033050;28;20581;-66
2021/07/05 05:39:55;;;;;;;12.75;7.90;;;24.50;65.70;;;;;;5033158;28;20059;-67
2021/07/05 05:42:21;;;;;;;8.90;6.35;;;24.50;65.90;;;;;;5032886;28;20037;-66
2021/07/05 05:44:46;;;;;;;7.80;6.97;;;24.50;65.90;;;;;;5032736;28;20049;-67
2021/07/05 05:47:12;;;;;;;8.40;6.05;;;24.50;65.70;;;;;;5033389;28;20231;-67
2021/07/05 05:49:39;;;;;;;7.82;6.28;;;24.50;65.60;;;;;;5033001;28;20052;-67
2021/07/05 05:52:05;;;;;;;7.60;5.57;;;24.50;65.40;;;;;;5033203;28;20049;-68
2021/07/05 05:54:31;;;;;;;6.60;5.40;;;24.50;64.90;;;;;;5032999;28;20041;-68
2021/07/05 05:56:57;;;;;;;8.13;5.78;;;24.50;64.40;;;;;;5032573;28;20038;-67
2021/07/05 05:59:22;;;;;;;8.88;5.57;;;24.40;64.10;;;;;;5032967;28;20029;-67
2021/07/05 06:01:51;;;;;;;7.30;5.20;;;24.50;64.00;;;;;;5032874;28;20029;-66
2021/07/05 06:04:21;;;;;;;7.10;6.40;;;24.50;64.00;;;;;;5032631;28;20050;-66
2021/07/05 06:06:47;;;;;;;12.18;7.18;;;24.50;64.20;;;;;;5032629;28;20099;-67
2021/07/05 06:09:14;;;;;;;8.55;6.55;;;24.50;64.30;;;;;;5031619;28;20033;-66
2021/07/05 06:11:40;;;;;;;9.23;6.72;;;24.50;64.60;;;;;;5032165;28;20025;-68
2021/07/05 06:14:06;;;;;;;9.63;6.38;;;24.50;64.80;;;;;;5032625;28;20432;-67
2021/07/05 06:16:33;;;;;;;7.63;6.47;;;24.60;65.00;;;;;;5032588;28;20523;-68
2021/07/05 06:18:59;;;;;;;7.43;6.30;;;24.60;65.60;;;;;;5032725;28;20022;-68
2021/07/05 06:21:26;;;;;;;9.70;6.97;;;24.50;66.10;;;;;;5032479;28;20076;-67
2021/07/05 06:23:56;;;;;;;9.98;6.65;;;24.60;66.40;;;;;;5032658;28;20454;-68
2021/07/05 06:26:22;;;;;;;7.82;7.03;;;24.60;66.50;;;;;;5032233;28;20032;-68
2021/07/05 06:28:48;;;;;;;8.68;7.57;;;24.50;66.40;;;;;;5032877;28;20033;-68
2021/07/05 06:31:14;;;;;;;8.68;6.85;;;24.60;66.60;;;;;;5032617;28;20029;-67
2021/07/05 06:33:40;;;;;;;9.75;6.75;;;24.50;66.60;;;;;;5031177;28;20029;-66
2021/07/05 06:36:06;;;;;;;9.07;6.68;;;24.60;66.80;;;;;;5032601;28;20029;-68
2021/07/05 06:38:33;;;;;;;7.60;6.68;;;24.50;66.70;;;;;;5032447;28;20107;-67
2021/07/05 06:40:59;;;;;;;7.97;6.90;;;24.60;66.60;;;;;;5032440;28;20103;-67
2021/07/05 06:43:25;;;;;;;10.43;8.43;;;24.50;66.60;;;;;;5032345;28;20478;-67
2021/07/05 06:45:51;;;;;;;8.07;7.00;;;24.60;66.60;;;;;;5032583;28;20113;-66
2021/07/05 06:48:17;;;;;;;8.70;7.78;;;24.60;66.60;;;;;;5032203;28;20049;-66
2021/07/05 06:50:43;;;;;;;8.05;6.10;;;24.60;66.60;;;;;;5032345;28;20113;-67
2021/07/05 06:53:09;;;;;;;7.90;7.10;;;24.50;66.60;;;;;;5032290;28;20090;-67
2021/07/05 06:55:35;;;;;;;8.18;7.35;;;24.60;66.70;;;;;;5031968;28;20116;-67
2021/07/05 06:58:01;;;;;;;15.02;8.02;;;24.60;66.60;;;;;;5032261;28;20080;-68
2021/07/05 07:00:28;;;;;;;8.52;7.15;;;24.60;66.80;;;;;;5032406;28;20030;-67
2021/07/05 07:02:56;;;;;;;9.90;7.28;;;24.60;66.70;;;;;;5031998;28;20532;-67
2021/07/05 07:05:23;;;;;;;11.02;7.63;;;24.60;66.70;;;;;;5032207;28;20036;-67
2021/07/05 07:07:54;;;;;;;8.80;7.50;;;24.60;66.60;;;;;;5032205;28;20030;-67
2021/07/05 07:10:22;;;;;;;7.30;6.60;;;24.60;66.40;;;;;;5032011;28;20026;-67
2021/07/05 07:12:49;;;;;;;10.32;7.07;;;24.60;66.20;;;;;;5032372;28;20103;-67
2021/07/05 07:15:18;;;;;;;7.72;6.55;;;24.60;66.30;;;;;;5030718;28;20033;-67
2021/07/05 07:18:01;;;;;;;8.13;7.30;;;24.60;66.30;;;;;;5032277;28;20028;-67
2021/07/05 07:20:27;;;;;;;8.82;7.38;;;24.60;66.40;;;;;;5030778;28;20026;-67
2021/07/05 07:22:53;;;;;;;8.40;7.60;;;24.60;66.50;;;;;;5032012;28;20088;-67
2021/07/05 07:25:19;;;;;;;12.40;8.30;;;24.60;66.60;;;;;;5035207;28;20048;-67
2021/07/05 07:27:44;;;;;;;11.75;8.50;;;24.70;66.60;;;;;;5035786;28;20029;-67
2021/07/05 07:30:13;;;;;;;7.78;6.97;;;24.60;66.60;;;;;;5035238;28;20029;-67
2021/07/05 07:32:39;;;;;;;7.45;6.72;;;24.60;66.60;;;;;;5035527;28;20075;-67
2021/07/05 07:35:06;;;;;;;8.43;7.60;;;24.60;66.60;;;;;;5034387;28;20373;-68
2021/07/05 07:37:33;;;;;;;13.75;10.88;;;24.60;66.60;;;;;;5033601;28;20021;-68
2021/07/05 07:40:03;;;;;;;12.88;11.20;;;24.60;66.90;;;;;;5035269;28;20405;-68
2021/07/05 07:42:29;;;;;;;16.55;14.43;;;24.40;67.00;;;;;;5035675;28;20083;-69
2021/07/05 07:44:54;;;;;;;20.00;17.92;;;24.30;67.40;;;;;;5017410;28;20042;-69
2021/07/05 07:47:20;;;;;;;31.35;25.35;;;24.20;67.80;;;;;;5034549;28;20022;-69
2021/07/05 07:49:46;;;;;;;33.92;29.13;;;24.20;67.90;;;;;;5034926;28;20021;-68
2021/07/05 07:52:12;;;;;;;38.97;29.20;;;24.20;68.00;;;;;;5035243;28;20602;-68
2021/07/05 07:54:37;;;;;;;29.98;26.17;;;24.20;68.00;;;;;;5035131;28;20053;-67
2021/07/05 07:57:03;;;;;;;25.15;20.85;;;24.20;67.80;;;;;;5035296;28;20021;-68
2021/07/05 07:59:29;;;;;;;21.55;18.23;;;24.30;67.60;;;;;;5035387;28;20064;-68
2021/07/05 08:01:54;;;;;;;20.92;17.55;;;24.30;67.30;;;;;;5034741;28;20025;-68
2021/07/05 08:04:20;;;;;;;23.52;16.33;;;24.40;67.00;;;;;;5035091;28;20129;-68
2021/07/05 08:06:46;;;;;;;18.20;15.07;;;24.50;66.90;;;;;;5034654;28;20025;-68
2021/07/05 08:09:12;;;;;;;23.48;15.23;;;24.50;66.70;;;;;;5035264;28;20028;-67
2021/07/05 08:11:38;;;;;;;18.05;15.25;;;24.50;66.40;;;;;;5034941;28;20071;-68
2021/07/05 08:14:06;;;;;;;14.10;12.60;;;24.50;66.40;;;;;;5035200;28;20059;-68
2021/07/05 08:16:32;;;;;;;13.05;11.68;;;24.60;66.40;;;;;;5035058;28;20021;-68
2021/07/05 08:18:58;;;;;;;13.20;11.57;;;24.60;66.20;;;;;;5033362;28;20105;-68
2021/07/05 08:21:25;;;;;;;13.68;10.93;;;24.50;66.00;;;;;;5034729;28;20090;-68
2021/07/05 08:23:51;;;;;;;12.38;10.90;;;24.60;66.00;;;;;;5034698;28;20142;-68
2021/07/05 08:26:18;;;;;;;12.60;10.95;;;24.60;65.90;;;;;;5034643;28;20558;-67
2021/07/05 08:28:45;;;;;;;12.25;11.05;;;24.60;65.90;;;;;;5034584;28;20053;-68
2021/07/05 08:31:10;;;;;;;11.15;9.88;;;24.60;66.00;;;;;;5034743;28;20026;-67
2021/07/05 08:33:37;;;;;;;10.80;9.68;;;24.60;66.10;;;;;;5034220;28;20036;-68
2021/07/05 08:36:04;;;;;;;14.15;11.13;;;24.60;66.00;;;;;;5034326;28;20115;-68
2021/07/05 08:38:30;;;;;;;11.00;9.52;;;24.60;66.10;;;;;;5034343;28;20481;-67
2021/07/05 08:40:58;;;;;;;11.30;10.13;;;24.60;66.10;;;;;;5034747;28;20104;-68
2021/07/05 08:43:27;;;;;;;11.05;9.77;;;24.70;66.20;;;;;;5034343;28;20033;-68
2021/07/05 08:46:01;;;;;;;11.00;9.80;;;24.60;66.00;;;;;;5034309;28;20500;-68
2021/07/05 08:48:29;;;;;;;10.60;8.52;;;24.70;66.10;;;;;;5034022;28;20037;-67
2021/07/05 08:50:56;;;;;;;11.27;8.88;;;24.70;66.40;;;;;;5034210;28;20421;-66
2021/07/05 08:53:22;;;;;;;12.45;8.95;;;24.60;66.30;;;;;;5034341;28;20029;-67
2021/07/05 08:55:47;;;;;;;9.82;8.80;;;24.70;66.10;;;;;;5033910;28;20528;-67
2021/07/05 08:58:13;;;;;;;10.13;9.00;;;24.60;66.10;;;;;;5034316;28;20067;-68
2021/07/05 09:00:39;;;;;;;10.00;8.80;;;24.70;66.00;;;;;;5033894;28;20072;-68
2021/07/05 09:03:05;;;;;;;10.20;8.48;;;24.70;66.10;;;;;;5034351;28;20065;-68
2021/07/05 09:05:31;;;;;;;9.65;7.63;;;24.70;66.00;;;;;;5032824;28;20367;-67
2021/07/05 09:08:02;;;;;;;10.63;8.20;;;24.70;66.00;;;;;;5034010;28;20489;-68
2021/07/05 09:10:39;;;;;;;9.40;8.50;;;24.70;65.90;;;;;;5033611;28;20018;-68
2021/07/05 09:13:15;;;;;;;9.30;7.90;;;24.70;66.00;;;;;;5033911;28;20029;-67
2021/07/05 09:15:42;;;;;;;7.72;6.93;;;24.70;65.90;;;;;;5033738;28;20021;-68
2021/07/05 09:18:27;;;;;;;8.80;7.10;;;24.70;66.00;;;;;;5033700;28;20152;-68
2021/07/05 09:20:54;;;;;;;8.88;8.05;;;24.70;66.00;;;;;;5033512;28;20100;-68
2021/07/05 09:23:19;;;;;;;10.10;8.20;;;24.70;66.10;;;;;;5033706;28;20104;-67
2021/07/05 09:25:48;;;;;;;11.43;8.18;;;24.70;66.10;;;;;;5033010;28;20437;-68
2021/07/05 09:28:18;;;;;;;9.10;7.88;;;24.70;66.10;;;;;;5033875;28;20032;-68
2021/07/05 09:30:50;;;;;;;8.32;7.50;;;24.70;66.20;;;;;;5033472;28;20128;-68
2021/07/05 09:33:23;;;;;;;9.63;8.60;;;24.70;66.10;;;;;;5033702;28;20068;-68
2021/07/05 09:35:55;;;;;;;9.48;7.88;;;24.70;66.30;;;;;;5033296;28;20362;-66
2021/07/05 09:38:38;;;;;;;7.65;6.85;;;24.70;66.30;;;;;;5033326;28;20025;-67
2021/07/05 09:41:22;;;;;;;8.07;7.15;;;24.70;66.30;;;;;;5033581;28;20025;-68
2021/07/05 09:43:54;;;;;;;9.30;8.40;;;24.70;66.30;;;;;;5033414;28;20026;-67
2021/07/05 09:46:46;;;;;;;9.48;8.07;;;24.70;66.30;;;;;;5032562;28;20414;-67
2021/07/05 09:49:20;;;;;;;8.35;7.55;;;24.70;66.30;;;;;;5032159;28;20492;-68
2021/07/05 09:52:08;;;;;;;8.52;7.45;;;24.70;66.20;;;;;;5033197;28;20104;-68
2021/07/05 09:54:36;;;;;;;8.65;7.10;;;24.70;66.20;;;;;;5033336;28;20393;-68
2021/07/05 09:57:05;;;;;;;9.75;8.48;;;24.70;66.20;;;;;;5032670;28;20104;-68
2021/07/05 09:59:31;;;;;;;7.85;7.05;;;24.70;66.10;;;;;;5032974;28;20080;-68
2021/07/05 10:01:59;;;;;;;7.18;6.38;;;24.70;66.10;;;;;;5033162;28;20026;-68
2021/07/05 10:04:38;;;;;;;8.07;7.00;;;24.70;65.90;;;;;;5032943;28;20494;-68
2021/07/05 10:07:05;;;;;;;8.73;7.25;;;24.70;66.00;;;;;;5032830;28;20049;-68
2021/07/05 10:09:45;;;;;;;9.70;7.38;;;24.70;65.90;;;;;;5032896;28;20436;-68
2021/07/05 10:12:26;;;;;;;8.75;6.88;;;24.70;65.90;;;;;;5033219;28;20061;-68
2021/07/05 10:15:12;;;;;;;7.88;7.07;;;24.70;65.80;;;;;;5032898;28;20034;-67
2021/07/05 10:17:42;;;;;;;7.63;6.93;;;24.70;65.90;;;;;;5032527;28;20033;-68
2021/07/05 10:20:14;;;;;;;11.73;8.80;;;24.70;66.00;;;;;;5032805;28;20108;-68
2021/07/05 10:22:41;;;;;;;7.50;6.65;;;24.70;65.90;;;;;;5032871;28;20103;-67
2021/07/05 10:25:08;;;;;;;7.10;6.43;;;24.70;65.90;;;;;;5032842;28;20030;-68
2021/07/05 10:27:34;;;;;;;8.90;6.90;;;24.70;65.90;;;;;;5032114;28;20038;-67
2021/07/05 10:30:07;;;;;;;8.95;7.38;;;24.70;65.90;;;;;;5032170;28;20105;-68
2021/07/05 10:32:32;;;;;;;7.10;6.35;;;24.70;65.70;;;;;;5032604;28;20398;-68
2021/07/05 10:34:59;;;;;;;7.15;6.45;;;24.70;65.70;;;;;;5032712;28;20060;-68
2021/07/05 10:37:36;;;;;;;7.57;6.78;;;24.70;65.70;;;;;;5032830;28;20025;-68
2021/07/05 10:40:04;;;;;;;8.10;6.68;;;24.70;65.60;;;;;;5032543;28;20032;-68
2021/07/05 10:42:43;;;;;;;6.95;6.22;;;24.70;65.50;;;;;;5032434;28;20030;-67
2021/07/05 10:45:12;;;;;;;6.65;5.95;;;24.70;65.40;;;;;;5032214;28;20025;-68
2021/07/05 10:47:42;;;;;;;8.05;6.55;;;24.70;65.30;;;;;;5032381;28;20462;-68
2021/07/05 10:50:09;;;;;;;7.50;6.80;;;24.70;65.30;;;;;;5032382;28;20029;-68
2021/07/05 10:52:49;;;;;;;7.80;7.03;;;24.70;65.30;;;;;;5032462;28;20083;-68
2021/07/05 10:55:39;;;;;;;8.80;6.32;;;24.70;65.30;;;;;;5032301;28;20034;-68
2021/07/05 10:58:18;;;;;;;7.15;6.13;;;24.70;65.30;;;;;;5034523;28;20100;-67
2021/07/05 11:01:13;;;;;;;7.15;6.45;;;24.70;65.30;;;;;;5034965;28;20466;-68
2021/07/05 11:03:39;;;;;;;7.47;6.78;;;24.70;65.20;;;;;;5034810;28;20129;-67
2021/07/05 11:06:14;;;;;;;7.28;6.18;;;24.70;65.30;;;;;;5035991;28;20041;-67
2021/07/05 11:08:49;;;;;;;10.10;6.70;;;24.70;65.30;;;;;;5035848;28;20089;-67
2021/07/05 11:11:22;;;;;;;7.63;6.82;;;24.80;65.40;;;;;;5035470;28;20026;-68
2021/07/05 11:14:07;;;;;;;8.55;7.10;;;24.70;65.30;;;;;;5036013;28;20029;-68
2021/07/05 11:16:51;;;;;;;8.73;6.35;;;24.70;65.20;;;;;;5035723;28;20030;-68
2021/07/05 11:19:47;;;;;;;6.95;6.35;;;24.70;65.20;;;;;;5036378;28;20453;-68
2021/07/05 11:22:30;;;;;;;7.78;6.68;;;24.70;65.20;;;;;;5035863;28;20038;-68
2021/07/05 11:25:04;;;;;;;9.52;8.25;;;24.80;65.20;;;;;;5035640;28;20032;-72
2021/07/05 11:27:34;;;;;;;9.05;7.75;;;24.80;64.90;;;;;;5035596;28;20030;-67
2021/07/05 11:30:29;;;;;;;25.52;20.85;;;25.00;64.60;;;;;;5034690;28;20025;-68
2021/07/05 11:33:07;;;;;;;15.63;13.55;;;25.10;64.00;;;;;;5034122;28;20234;-69
2021/07/05 11:35:43;;;;;;;34.17;25.33;;;25.20;63.30;;;;;;5033508;28;20028;-69
2021/07/05 11:38:23;;;;;;;27.58;20.48;;;25.30;63.00;;;;;;5033291;28;20091;-69
2021/07/05 11:40:51;;;;;;;32.72;26.48;;;25.30;62.50;;;;;;5032976;28;20477;-69
2021/07/05 11:43:37;;;;;;;38.38;32.60;;;25.30;62.60;;;;;;5034281;28;20025;-69
2021/07/05 11:46:03;;;;;;;17.15;15.20;;;25.30;63.00;;;;;;5031779;28;20531;-68
2021/07/05 11:48:41;;;;;;;13.43;11.60;;;25.40;63.50;;;;;;5034342;28;20025;-68
2021/07/05 11:51:21;;;;;;;10.25;9.15;;;25.40;63.30;;;;;;5032602;28;20026;-68
2021/07/05 11:53:49;;;;;;;11.35;9.27;;;25.30;63.30;;;;;;5032309;28;20029;-68
2021/07/05 11:56:30;;;;;;;9.32;8.25;;;25.40;63.50;;;;;;5035025;28;20037;-67
2021/07/05 11:58:57;;;;;;;9.00;8.10;;;25.30;63.30;;;;;;5034419;28;20029;-68
2021/07/05 12:01:25;;;;;;;10.52;8.77;;;25.30;63.10;;;;;;5031706;28;20021;-69
2021/07/05 12:03:53;;;;;;;8.55;7.68;;;25.40;63.20;;;;;;5033689;28;20065;-69
2021/07/05 12:06:20;;;;;;;9.05;7.45;;;25.40;63.30;;;;;;5033690;28;20045;-69
2021/07/05 12:08:54;;;;;;;11.43;8.65;;;25.40;63.50;;;;;;5033337;28;20032;-68
2021/07/05 12:11:40;;;;;;;9.18;7.57;;;25.50;63.40;;;;;;5034651;28;20025;-67
2021/07/05 12:14:27;;;;;;;11.27;7.70;;;25.40;63.50;;;;;;5034353;28;20469;-67
2021/07/05 12:17:04;;;;;;;11.43;7.78;;;25.30;63.60;;;;;;5034339;28;20029;-67
2021/07/05 12:19:32;;;;;;;8.15;7.15;;;25.20;64.00;;;;;;5034360;28;20080;-67
2021/07/05 12:22:07;;;;;;;9.07;7.40;;;25.20;64.20;;;;;;5033582;28;20036;-67
2021/07/05 12:24:42;;;;;;;8.15;7.35;;;25.10;64.20;;;;;;5034298;28;20055;-67
2021/07/05 12:27:10;;;;;;;8.25;6.95;;;25.10;64.40;;;;;;5032724;28;20076;-67
2021/07/05 12:29:45;;;;;;;9.02;6.97;;;25.10;64.50;;;;;;5032789;28;20032;-67
2021/07/05 12:32:20;;;;;;;8.68;7.40;;;25.10;64.50;;;;;;5034145;28;20465;-67
2021/07/05 12:34:55;;;;;;;9.02;7.00;;;25.10;64.30;;;;;;5034204;28;20035;-67
2021/07/05 12:37:32;;;;;;;7.88;6.78;;;25.10;65.10;;;;;;5034031;28;20075;-68
2021/07/05 12:40:21;;;;;;;7.05;6.35;;;25.00;64.30;;;;;;5033810;28;20022;-68
2021/07/05 12:42:55;;;;;;;8.05;6.80;;;25.00;64.30;;;;;;5034595;28;20137;-67
2021/07/05 12:45:32;;;;;;;7.43;6.57;;;25.00;64.40;;;;;;5033645;28;20458;-68
2021/07/05 12:48:02;;;;;;;7.93;6.03;;;25.00;64.40;;;;;;5033844;28;20068;-67
2021/07/05 12:50:37;;;;;;;7.55;6.85;;;25.00;64.40;;;;;;5033463;28;20032;-67